OBBIOMAA

Guest
Details From OBBI - Bahrain Intl
To OMAA - Abu Dhabi Intl
Flight Number -
Tags generated
Created
Modified
Stats Distance 244 nm / 452 km
Max Altitude 25,000 ft / 7,620 m
Waypoints 6
Social Downloads 2
Likes 0
Share

Download

Looking for another format? Having issues loading an existing format? Contact us
Advertisement - Login to hide

Notes

Basic altitude profile: - Ascent Rate: 2000ft/min - Ascent Speed: 300kts - Cruise Altitude: 25000ft - Cruise Speed: 450kts - Descent Rate: 1500ft/min - Descent Speed: 250kts Options: - Use NATs: yes - Use PACOTS: yes - Use low airways: yes - Use high airways: yes

Route

OBBI ORSIS UL604 ENANO N685 UMEVU OMAA

ID Type Via Altitude (ft/m) Position (lat/lon) Dist (leg/tot) Name
O OBBI APT - 0 / 0 26.26790 / 50.63690 - / 0 nm Bahrain Intl
ORSIS FIX - 25,000 / 7,620 25.46690 / 52.27670 100 / 100 nm
ENANO FIX UL604 (AWY-HI) 25,000 / 7,620 25.39670 / 52.43300 9 / 110 nm
TOSNA FIX N685 (AWY-HI) 23,600 / 7,193 25.27000 / 52.68780 15 / 126 nm
UMEVU FIX N685 (AWY-HI) 18,500 / 5,639 25.09580 / 53.11470 25 / 151 nm
O OMAA APT - 0 / 0 24.44340 / 54.65270 92 / 244 nm Abu Dhabi Intl

Altitude Profile

Advertisement - Login to hide

Weather


0- 5 10 15 20 25 30 35+ Temperature / °C

Clouds and Precipitation
Forecast for 2024-02-21 06:00 UTC. Updated 2 hours ago

Ground ~20,000 ft ~40,000 ft Winds

OBBI

Details ICAO OBBI (BAH)
Name Bahrain Intl
Region Bahrain
Timezone Asia/Bahrain (UTC+3.0)
Stats Elevation 8 ft / 2 m (AMSL)
Location 26.267900° 50.636900°
Runways 2
Magnetic Variation 3.055° E

METAR

OBBI 210530Z 31009KT CAVOK 20/15 Q1020 NOSIG

Decode

TAF

TAF OBBI 210500Z 2106/2212 34009KT CAVOK= TAF OKKK 210500Z 2106/2212 34010KT 7000 NSC

Decode

Departure Runways

ID Width Length Bearing (true/mag) Surface Threshold Overrun Markings Lighting
12L 197 ft / 60 m 12,994 ft / 3,961 m 122.77° / 119.71° ASPHALT 1,001 ft / 305 m 207 ft / 63 m PREC-APP CENTERLINE EDGE THRESHOLD ALSF-I TDZ REIL-OMNI
12R 148 ft / 45 m 8,300 ft / 2,530 m 122.73° / 119.68° ASPHALT 1,007 ft / 307 m 0 ft / 0 m APP EDGE THRESHOLD REIL-OMNI
30L 148 ft / 45 m 8,300 ft / 2,530 m 302.74° / 299.69° ASPHALT 397 ft / 121 m 0 ft / 0 m PREC-APP EDGE THRESHOLD REIL-OMNI
30R 197 ft / 60 m 12,994 ft / 3,961 m 302.78° / 299.73° ASPHALT 997 ft / 304 m 203 ft / 62 m PREC-APP CENTERLINE EDGE THRESHOLD ALSF-I TDZ REIL-OMNI

OMAA

Details ICAO OMAA (AUH)
Name Abu Dhabi Intl
Region United Arab Emirates
Timezone Asia/Dubai (UTC+4.0)
Stats Elevation 83 ft / 25 m (AMSL)
Location 24.443400° 54.652700°
Runways 2
Magnetic Variation 2.271° E

METAR

OMAA 210500Z 29013KT CAVOK 21/15 Q1018 NOSIG

Decode

TAF

TAF OMAA 210500Z 2106/2212 30012KT 8000 NSC

Decode

Destination Runways

ID Width Length Bearing (true/mag) Surface Threshold Overrun Markings Lighting
13L 197 ft / 60 m 13,460 ft / 4,103 m 127.99° / 125.72° ASPHALT 0 ft / 0 m 397 ft / 121 m PREC-APP CENTERLINE EDGE THRESHOLD ALSF-II TDZ REIL-OMNI
13R 197 ft / 60 m 13,478 ft / 4,108 m 127.99° / 125.72° ASPHALT 0 ft / 0 m 394 ft / 120 m PREC-APP CENTERLINE EDGE THRESHOLD ALSF-II TDZ REIL-OMNI
31L 197 ft / 60 m 13,478 ft / 4,108 m 308.01° / 305.74° ASPHALT 0 ft / 0 m 397 ft / 121 m PREC-APP CENTERLINE EDGE THRESHOLD ALSF-II TDZ REIL-OMNI
31R 197 ft / 60 m 13,460 ft / 4,103 m 308.01° / 305.74° ASPHALT 0 ft / 0 m 387 ft / 118 m PREC-APP CENTERLINE EDGE THRESHOLD ALSF-II TDZ REIL-OMNI

Approach Navaids

Runway Type Ident Frequency Range Bearing (true/mag) Slope Elevation
13L GS IAS 110.30 MHz 10 nm / 19 km 128.00° / 125.73 ° 3.00° 83 ft / 25 m (AMSL)
13L DME IAE 108.90 MHz 18 nm / 33 km - - 98 ft / 30 m (AMSL)
13L LOC-ILS IAS 110.30 MHz 18 nm / 33 km 128.00° / 125.73 ° - 83 ft / 25 m (AMSL)
13R DME IAE 108.90 MHz 18 nm / 33 km - - 98 ft / 30 m (AMSL)
13R MM MM - - 127.94° / 125.67 ° - 88 ft / 27 m (AMSL)
13R LOC-ILS IAE 109.15 MHz 18 nm / 33 km 128.00° / 125.73 ° - 83 ft / 25 m (AMSL)
13R GS IAE 109.15 MHz 10 nm / 19 km 128.00° / 125.73 ° 3.00° 83 ft / 25 m (AMSL)
31L GS IAW 109.30 MHz 10 nm / 19 km 308.00° / 305.73 ° 3.00° 83 ft / 25 m (AMSL)
31L DME IAW 109.30 MHz 18 nm / 33 km - - 96 ft / 29 m (AMSL)
31L LOC-ILS IAW 109.30 MHz 18 nm / 33 km 308.00° / 305.73 ° - 83 ft / 25 m (AMSL)
31L MM MM - - 307.94° / 305.67 ° - 88 ft / 27 m (AMSL)
31R GS IAN 108.75 MHz 10 nm / 19 km 308.00° / 305.73 ° 3.00° 83 ft / 25 m (AMSL)
31R DME IAW 109.30 MHz 18 nm / 33 km - - 96 ft / 29 m (AMSL)
31R LOC-ILS IAN 108.75 MHz 18 nm / 33 km 308.00° / 305.73 ° - 83 ft / 25 m (AMSL)

Popular Alternatives